createdAt,value
2023-05-15T00:01:31.724Z,57.90
2023-05-15T00:03:59.584Z,57.87
2023-05-15T00:06:28.135Z,57.41
2023-05-15T00:08:56.056Z,57.60
2023-05-15T00:11:23.903Z,57.39
2023-05-15T00:13:52.301Z,57.43
2023-05-15T00:16:21.583Z,57.70
2023-05-15T00:18:49.545Z,57.61
2023-05-15T00:21:17.755Z,57.48
2023-05-15T00:23:47.502Z,57.48
2023-05-15T00:26:15.797Z,57.36
2023-05-15T00:28:43.674Z,57.71
2023-05-15T00:31:13.131Z,57.64
2023-05-15T00:33:42.530Z,57.51
2023-05-15T00:36:10.755Z,57.62
2023-05-15T00:38:38.631Z,57.22
2023-05-15T00:41:06.755Z,57.73
2023-05-15T00:43:34.609Z,57.68
2023-05-15T00:46:02.453Z,57.50
2023-05-15T00:48:30.319Z,57.64
2023-05-15T00:51:00.341Z,57.48
2023-05-15T00:53:28.346Z,57.94
2023-05-15T00:55:57.158Z,57.51
2023-05-15T00:58:25.148Z,57.89
2023-05-15T01:00:54.372Z,57.89
2023-05-15T01:03:22.324Z,57.89
2023-05-15T01:05:50.267Z,57.78
2023-05-15T01:08:21.929Z,57.51
2023-05-15T01:10:49.993Z,57.71
2023-05-15T01:13:17.874Z,58.08
2023-05-15T01:15:45.741Z,57.91
2023-05-15T01:18:13.713Z,57.77
2023-05-15T01:21:03.188Z,57.53
2023-05-15T01:23:39.910Z,57.73
2023-05-15T01:26:34.058Z,57.58
2023-05-15T01:29:06.070Z,57.65
2023-05-15T01:31:33.969Z,57.65
2023-05-15T01:34:04.194Z,57.67
2023-05-15T01:36:35.802Z,57.55
2023-05-15T01:39:04.450Z,57.42
2023-05-15T01:41:36.326Z,57.36
2023-05-15T01:44:07.003Z,57.36
2023-05-15T01:46:35.922Z,56.93
2023-05-15T01:49:03.809Z,57.19
2023-05-15T01:51:31.849Z,56.92
2023-05-15T01:53:59.994Z,56.96
2023-05-15T01:56:28.234Z,56.97
2023-05-15T01:58:56.365Z,56.93
2023-05-15T02:01:25.811Z,56.62
2023-05-15T02:03:53.725Z,56.75
2023-05-15T02:06:21.725Z,56.92
2023-05-15T02:08:49.693Z,56.88
2023-05-15T02:11:17.563Z,56.50
2023-05-15T02:13:45.434Z,56.83
2023-05-15T02:16:13.384Z,56.72
2023-05-15T02:18:42.925Z,56.36
2023-05-15T02:21:10.869Z,56.30
2023-05-15T02:23:39.282Z,56.57
2023-05-15T02:26:13.544Z,56.53
2023-05-15T02:28:46.285Z,56.65
2023-05-15T02:31:15.661Z,56.89
2023-05-15T02:33:48.445Z,56.50
2023-05-15T02:36:19.316Z,56.94
2023-05-15T02:38:49.415Z,56.77
2023-05-15T02:41:17.385Z,56.91
2023-05-15T02:43:45.361Z,56.55
2023-05-15T02:46:13.294Z,56.74
2023-05-15T02:48:41.377Z,56.29
2023-05-15T02:51:11.479Z,56.60
2023-05-15T02:53:40.619Z,56.29
2023-05-15T02:56:08.587Z,56.30
2023-05-15T02:58:36.472Z,56.31
2023-05-15T03:01:04.617Z,56.39
2023-05-15T03:03:32.654Z,56.14
2023-05-15T03:06:01.526Z,56.21
2023-05-15T03:08:30.822Z,56.34
2023-05-15T03:10:58.987Z,56.20
2023-05-15T03:13:26.920Z,56.21
2023-05-15T03:15:54.805Z,56.17
2023-05-15T03:18:22.951Z,56.23
2023-05-15T03:20:52.668Z,56.34
2023-05-15T03:23:20.821Z,56.13
2023-05-15T03:25:50.100Z,56.36
2023-05-15T03:28:17.979Z,56.23
2023-05-15T03:30:45.921Z,56.25
2023-05-15T03:33:13.813Z,56.20
2023-05-15T03:35:41.654Z,55.85
2023-05-15T03:38:09.534Z,55.99
2023-05-15T03:40:39.408Z,55.92
2023-05-15T03:43:08.786Z,55.71
2023-05-15T03:45:37.166Z,55.74
2023-05-15T03:48:05.442Z,55.82
2023-05-15T03:50:33.795Z,55.73
2023-05-15T03:53:01.666Z,55.60
2023-05-15T03:55:29.504Z,55.76
2023-05-15T03:57:58.539Z,55.69
2023-05-15T04:00:27.850Z,55.77
2023-05-15T04:02:55.921Z,55.76
2023-05-15T04:05:24.187Z,55.64
2023-05-15T04:07:52.233Z,55.45
2023-05-15T04:10:20.328Z,55.70
2023-05-15T04:12:48.513Z,55.61
2023-05-15T04:15:17.472Z,55.53
2023-05-15T04:17:46.951Z,55.46
2023-05-15T04:20:15.442Z,55.35
2023-05-15T04:22:43.492Z,55.44
2023-05-15T04:25:11.801Z,55.30
2023-05-15T04:27:39.696Z,55.51
2023-05-15T04:30:08.982Z,55.31
2023-05-15T04:32:37.526Z,55.50
2023-05-15T04:35:10.185Z,55.41
2023-05-15T04:37:38.257Z,55.23
2023-05-15T04:40:08.063Z,55.22
2023-05-15T04:42:37.730Z,55.30
2023-05-15T04:45:08.086Z,55.45
2023-05-15T04:47:36.085Z,55.20
2023-05-15T04:50:04.090Z,55.41
2023-05-15T04:52:33.340Z,55.31
2023-05-15T04:55:01.263Z,55.41
2023-05-15T04:57:29.172Z,55.36
2023-05-15T04:59:58.071Z,55.30
2023-05-15T05:02:25.976Z,55.42
2023-05-15T05:04:53.837Z,55.19
2023-05-15T05:07:21.741Z,55.36
2023-05-15T05:09:51.264Z,55.51
2023-05-15T05:12:21.998Z,55.57
2023-05-15T05:14:52.961Z,55.53
2023-05-15T05:17:20.849Z,55.58
2023-05-15T05:19:48.743Z,55.55
2023-05-15T05:22:16.592Z,55.62
2023-05-15T05:24:44.471Z,55.53
2023-05-15T05:27:13.801Z,55.81
2023-05-15T05:29:41.737Z,55.81
2023-05-15T05:32:09.598Z,55.78
2023-05-15T05:34:37.923Z,55.43
2023-05-15T05:37:06.267Z,55.45
2023-05-15T05:39:34.113Z,55.69
2023-05-15T05:42:02.029Z,55.61
2023-05-15T05:44:31.224Z,55.75
2023-05-15T05:46:59.085Z,55.59
2023-05-15T05:49:27.025Z,55.66
2023-05-15T05:51:54.901Z,55.47
2023-05-15T05:54:22.781Z,55.73
2023-05-15T05:56:50.637Z,55.60
2023-05-15T05:59:18.516Z,55.41
2023-05-15T06:01:49.221Z,55.67
2023-05-15T06:05:06.932Z,55.56
2023-05-15T06:07:37.091Z,55.29
2023-05-15T06:10:07.834Z,55.63
2023-05-15T06:12:37.707Z,55.74
2023-05-15T06:15:08.154Z,55.69
2023-05-15T06:17:38.567Z,55.58
2023-05-15T06:20:10.268Z,55.41
2023-05-15T06:22:40.053Z,55.22
2023-05-15T06:25:13.984Z,55.36
2023-05-15T06:27:42.803Z,55.10
2023-05-15T06:30:15.751Z,55.16
2023-05-15T06:32:46.805Z,55.34
2023-05-15T06:35:15.399Z,55.24
2023-05-15T06:37:44.145Z,55.05
2023-05-15T06:40:13.409Z,54.63
2023-05-15T06:42:42.473Z,54.98
2023-05-15T06:45:11.827Z,54.90
2023-05-15T06:47:40.680Z,55.08
2023-05-15T06:50:12.205Z,54.70
2023-05-15T06:52:41.098Z,54.52
2023-05-15T06:55:10.525Z,54.45
2023-05-15T06:57:39.624Z,54.40
2023-05-15T07:00:10.397Z,54.17
2023-05-15T07:02:39.178Z,54.12
2023-05-15T07:05:09.120Z,54.28
2023-05-15T07:07:39.339Z,53.89
2023-05-15T07:10:10.270Z,53.67
2023-05-15T07:12:38.829Z,54.21
2023-05-15T07:15:08.243Z,54.07
2023-05-15T07:17:36.910Z,53.21
2023-05-15T07:20:07.332Z,52.74
2023-05-15T07:22:44.520Z,52.61
2023-05-15T07:25:18.505Z,51.91
2023-05-15T07:27:47.345Z,51.70
2023-05-15T07:30:16.837Z,51.59
2023-05-15T07:32:45.442Z,51.77
2023-05-15T07:35:14.346Z,51.57
2023-05-15T07:37:43.044Z,51.83
2023-05-15T07:40:12.400Z,51.62
2023-05-15T07:42:44.034Z,51.60
2023-05-15T07:45:12.928Z,50.86
2023-05-15T07:47:46.668Z,50.97
2023-05-15T07:50:15.304Z,50.81
2023-05-15T07:52:44.102Z,50.90
2023-05-15T07:55:12.854Z,50.69
2023-05-15T07:57:42.946Z,50.26
2023-05-15T08:00:13.170Z,50.41
2023-05-15T08:02:42.751Z,50.11
2023-05-15T08:05:11.753Z,50.25
2023-05-15T08:07:40.561Z,49.83
2023-05-15T08:10:10.847Z,49.32
2023-05-15T08:12:46.474Z,48.91
2023-05-15T08:15:17.000Z,48.73
2023-05-15T08:17:46.150Z,48.95
2023-05-15T08:20:15.315Z,49.54
2023-05-15T08:22:44.565Z,49.36
2023-05-15T08:25:13.395Z,49.41
2023-05-15T08:27:42.172Z,49.14
2023-05-15T08:30:12.039Z,49.08
2023-05-15T08:32:42.693Z,49.13
2023-05-15T08:35:10.675Z,49.09
2023-05-15T08:37:38.585Z,49.39
2023-05-15T08:40:08.132Z,49.41
2023-05-15T08:42:39.494Z,49.50
2023-05-15T08:45:09.519Z,49.22
2023-05-15T08:47:41.501Z,49.68
2023-05-15T08:50:12.215Z,49.58
2023-05-15T08:52:41.698Z,49.89
2023-05-15T08:55:10.200Z,49.48
2023-05-15T08:57:38.364Z,49.63
2023-05-15T09:00:09.320Z,49.50
2023-05-15T09:02:37.850Z,49.09
2023-05-15T09:05:08.524Z,49.20
2023-05-15T09:07:37.089Z,48.67
2023-05-15T09:10:05.916Z,48.66
2023-05-15T09:12:34.871Z,48.28
2023-05-15T09:15:12.829Z,47.97
2023-05-15T09:17:40.811Z,47.73
2023-05-15T09:20:25.891Z,47.56
2023-05-15T09:22:54.024Z,47.37
2023-05-15T09:25:34.422Z,47.47
2023-05-15T09:28:02.591Z,47.15
2023-05-15T09:30:31.188Z,47.10
2023-05-15T09:33:01.324Z,46.52
2023-05-15T09:35:40.666Z,46.25
2023-05-15T09:38:10.309Z,46.25
2023-05-15T09:40:38.241Z,46.39
2023-05-15T09:43:06.275Z,46.49
2023-05-15T09:45:34.887Z,46.64
2023-05-15T09:48:05.683Z,45.93
2023-05-15T09:50:34.899Z,45.92
2023-05-15T09:53:04.218Z,45.96
2023-05-15T09:55:33.033Z,45.57
2023-05-15T09:58:07.885Z,45.56
2023-05-15T10:00:36.205Z,44.89
2023-05-15T10:03:17.203Z,45.13
2023-05-15T10:05:45.275Z,44.71
2023-05-15T10:08:16.413Z,44.93
2023-05-15T10:10:44.705Z,44.63
2023-05-15T10:13:12.620Z,44.59
2023-05-15T10:15:40.713Z,44.52
2023-05-15T10:18:08.856Z,44.39
2023-05-15T10:20:36.931Z,44.44
2023-05-15T10:23:05.831Z,44.36
2023-05-15T10:25:39.596Z,44.13
2023-05-15T10:28:08.867Z,44.16
2023-05-15T10:30:37.227Z,44.02
2023-05-15T10:33:05.657Z,43.82
2023-05-15T10:35:33.751Z,44.07
2023-05-15T10:38:01.829Z,43.23
2023-05-15T10:40:29.793Z,43.75
2023-05-15T10:42:59.065Z,43.58
2023-05-15T10:45:27.214Z,43.13
2023-05-15T10:47:55.092Z,43.26
2023-05-15T10:50:23.258Z,42.77
2023-05-15T10:52:52.050Z,42.69
2023-05-15T10:55:19.979Z,42.43
2023-05-15T10:57:48.302Z,42.50
2023-05-15T11:00:32.524Z,42.69
2023-05-15T11:03:01.249Z,43.09
2023-05-15T11:05:31.116Z,43.28
2023-05-15T11:08:29.880Z,42.82
2023-05-15T11:10:57.964Z,42.46
2023-05-15T11:13:26.685Z,42.53
2023-05-15T11:15:57.315Z,42.29
2023-05-15T11:18:25.198Z,42.68
2023-05-15T11:21:11.462Z,42.90
2023-05-15T11:23:40.729Z,42.72
2023-05-15T11:26:08.609Z,42.57
2023-05-15T11:28:42.754Z,43.58
2023-05-15T11:31:12.162Z,44.82
2023-05-15T11:33:40.815Z,44.73
2023-05-15T11:36:08.857Z,43.54
2023-05-15T11:38:40.197Z,43.86
2023-05-15T11:41:18.708Z,42.25
2023-05-15T11:43:47.089Z,42.31
2023-05-15T11:46:16.480Z,41.71
2023-05-15T11:48:47.761Z,40.78
2023-05-15T11:51:17.839Z,40.49
2023-05-15T11:53:45.810Z,39.48
2023-05-15T11:56:19.421Z,38.72
2023-05-15T11:58:49.710Z,39.64
2023-05-15T12:01:19.122Z,38.55
2023-05-15T12:03:48.463Z,38.89
2023-05-15T12:06:16.594Z,37.60
2023-05-15T12:08:45.382Z,36.68
2023-05-15T12:11:13.555Z,37.06
2023-05-15T12:16:09.139Z,36.31
2023-05-15T12:18:38.879Z,36.04
2023-05-15T12:21:07.002Z,36.01
2023-05-15T12:23:34.923Z,35.97
2023-05-15T12:26:03.587Z,35.39
2023-05-15T12:28:35.139Z,36.03
2023-05-15T12:31:04.195Z,35.17
2023-05-15T12:33:32.352Z,35.28
2023-05-15T12:36:02.047Z,35.04
2023-05-15T12:38:30.595Z,35.09
2023-05-15T12:40:58.766Z,35.47
2023-05-15T12:43:26.744Z,34.99
2023-05-15T12:45:55.092Z,34.48
2023-05-15T12:48:23.098Z,33.47
2023-05-15T12:50:51.675Z,33.34
2023-05-15T12:53:22.584Z,33.50
2023-05-15T12:55:50.475Z,33.37
2023-05-15T12:58:19.201Z,33.54
2023-05-15T13:00:49.846Z,31.84
2023-05-15T13:03:21.120Z,32.13
2023-05-15T13:05:49.157Z,32.87
2023-05-15T13:08:17.909Z,32.42
2023-05-15T13:10:47.925Z,32.17
2023-05-15T13:13:16.055Z,32.19
2023-05-15T13:15:44.748Z,32.04
2023-05-15T13:18:13.380Z,31.70
2023-05-15T13:20:42.347Z,31.87
2023-05-15T13:23:10.940Z,31.14
2023-05-15T13:25:38.812Z,31.23
2023-05-15T13:28:08.442Z,31.16
2023-05-15T13:30:36.369Z,29.59
2023-05-15T13:33:04.974Z,29.16
2023-05-15T13:35:36.926Z,30.44
2023-05-15T13:38:05.423Z,29.35
2023-05-15T13:40:35.484Z,29.45
2023-05-15T13:43:03.359Z,30.05
2023-05-15T13:45:33.181Z,29.52
2023-05-15T13:48:01.482Z,29.63
2023-05-15T13:50:29.535Z,29.23
2023-05-15T13:52:57.468Z,29.04
2023-05-15T13:55:26.292Z,28.42
2023-05-15T13:57:54.364Z,28.94
2023-05-15T14:00:23.150Z,28.62
2023-05-15T14:02:52.488Z,28.70
2023-05-15T14:05:20.912Z,28.68
2023-05-15T14:07:48.967Z,29.04
2023-05-15T14:10:17.288Z,29.05
2023-05-15T14:12:46.626Z,28.60
2023-05-15T14:15:14.570Z,28.02
2023-05-15T14:17:47.339Z,27.96
2023-05-15T14:20:17.219Z,27.91
2023-05-15T14:22:45.230Z,28.02
2023-05-15T14:25:13.601Z,28.54
2023-05-15T14:27:41.503Z,28.03
2023-05-15T14:30:10.575Z,28.37
2023-05-15T14:32:38.459Z,28.54
2023-05-15T14:35:06.738Z,28.03
2023-05-15T14:37:36.150Z,28.02
2023-05-15T14:40:04.969Z,28.17
2023-05-15T14:42:33.036Z,27.90
2023-05-15T14:45:01.158Z,27.52
2023-05-15T14:47:30.031Z,27.05
2023-05-15T14:49:57.936Z,26.98
2023-05-15T14:52:25.883Z,27.30
2023-05-15T14:55:07.755Z,27.13
2023-05-15T14:57:36.955Z,27.68
2023-05-15T15:00:06.094Z,28.12
2023-05-15T15:02:34.293Z,27.82
2023-05-15T15:05:02.283Z,27.86
2023-05-15T15:07:30.437Z,27.38
2023-05-15T15:09:59.680Z,28.02
2023-05-15T15:12:27.978Z,28.04
2023-05-15T15:14:55.945Z,28.05
2023-05-15T15:17:24.203Z,27.54
2023-05-15T15:19:52.484Z,27.50
2023-05-15T15:22:20.798Z,26.60
2023-05-15T15:24:48.848Z,26.61
2023-05-15T15:27:18.694Z,27.01
2023-05-15T15:29:46.917Z,27.16
2023-05-15T15:32:15.015Z,27.23
2023-05-15T15:34:42.948Z,26.25
2023-05-15T15:37:11.527Z,26.49
2023-05-15T15:39:39.532Z,26.96
2023-05-15T15:42:07.671Z,26.59
2023-05-15T15:44:37.342Z,27.03
2023-05-15T15:47:05.831Z,26.34
2023-05-15T15:49:34.112Z,25.56
2023-05-15T15:52:02.605Z,25.62
2023-05-15T15:54:31.229Z,25.17
2023-05-15T15:56:59.320Z,25.71
2023-05-15T15:59:27.245Z,25.46
2023-05-15T16:01:56.490Z,24.61
2023-05-15T16:04:24.580Z,24.75
2023-05-15T16:06:52.496Z,24.27
2023-05-15T16:09:20.330Z,24.98
2023-05-15T16:11:48.310Z,24.49
2023-05-15T16:14:16.310Z,24.71
2023-05-15T16:16:44.298Z,25.14
2023-05-15T16:19:14.086Z,23.88
2023-05-15T16:21:42.072Z,24.45
2023-05-15T16:24:10.254Z,24.08
2023-05-15T16:26:38.531Z,23.86
2023-05-15T16:29:06.996Z,24.05
2023-05-15T16:31:34.865Z,24.20
2023-05-15T16:34:03.812Z,23.46
2023-05-15T16:36:33.284Z,23.42
2023-05-15T16:39:01.594Z,23.82
2023-05-15T16:41:30.149Z,23.23
2023-05-15T16:43:58.098Z,23.48
2023-05-15T16:46:26.327Z,23.33
2023-05-15T16:48:54.452Z,23.25
2023-05-15T16:51:22.759Z,22.85
2023-05-15T16:53:56.452Z,23.10
2023-05-15T16:56:24.403Z,23.13
2023-05-15T16:58:53.027Z,23.02
2023-05-15T17:01:21.713Z,23.12
2023-05-15T17:03:49.883Z,23.23
2023-05-15T17:06:17.808Z,22.84
2023-05-15T17:08:46.289Z,22.68
2023-05-15T17:11:15.535Z,23.04
2023-05-15T17:13:43.414Z,22.86
2023-05-15T17:16:11.421Z,23.00
2023-05-15T17:18:40.342Z,22.56
2023-05-15T17:21:08.286Z,22.96
2023-05-15T17:23:36.422Z,22.99
2023-05-15T17:26:04.356Z,22.57
2023-05-15T17:28:35.882Z,23.19
2023-05-15T17:31:09.583Z,23.33
2023-05-15T17:33:37.483Z,24.19
2023-05-15T17:36:05.866Z,25.43
2023-05-15T17:38:33.894Z,26.21
2023-05-15T17:41:01.807Z,26.84
2023-05-15T17:43:29.720Z,27.32
2023-05-15T17:46:00.544Z,27.71
2023-05-15T17:48:28.595Z,27.94
2023-05-15T17:50:56.746Z,28.08
2023-05-15T17:53:24.642Z,28.17
2023-05-15T17:55:53.113Z,28.09
2023-05-15T17:58:21.914Z,28.02
2023-05-15T18:00:49.855Z,28.32
2023-05-15T18:03:19.137Z,28.60
2023-05-15T18:05:47.536Z,28.87
2023-05-15T18:08:15.520Z,28.99
2023-05-15T18:10:43.865Z,28.92
2023-05-15T18:13:11.804Z,28.96
2023-05-15T18:15:40.304Z,28.32
2023-05-15T18:18:08.345Z,27.71
2023-05-15T18:20:38.027Z,27.23
2023-05-15T18:23:06.440Z,27.03
2023-05-15T18:25:39.706Z,27.20
2023-05-15T18:28:07.786Z,27.39
2023-05-15T18:30:35.935Z,27.79
2023-05-15T18:33:03.870Z,28.30
2023-05-15T18:35:31.994Z,29.10
2023-05-15T18:38:01.316Z,29.97
2023-05-15T18:40:29.287Z,30.22
2023-05-15T18:42:57.254Z,30.79
2023-05-15T18:45:29.605Z,31.09
2023-05-15T18:47:57.610Z,31.53
2023-05-15T18:50:26.030Z,31.80
2023-05-15T18:52:54.439Z,31.97
2023-05-15T18:55:24.056Z,32.38
2023-05-15T18:57:52.050Z,32.30
2023-05-15T19:00:33.905Z,32.24
2023-05-15T19:03:07.179Z,32.37
2023-05-15T19:05:35.250Z,32.83
2023-05-15T19:08:04.298Z,33.10
2023-05-15T19:10:33.840Z,32.80
2023-05-15T19:13:01.749Z,32.78
2023-05-15T19:15:29.634Z,33.45
2023-05-15T19:17:57.559Z,33.52
2023-05-15T19:20:26.104Z,33.79
2023-05-15T19:22:54.073Z,33.78
2023-05-15T19:25:22.172Z,34.22
2023-05-15T19:27:51.441Z,34.59
2023-05-15T19:30:19.991Z,34.83
2023-05-15T19:32:48.375Z,35.26
2023-05-15T19:35:16.536Z,35.07
2023-05-15T19:37:44.377Z,35.04
2023-05-15T19:40:13.197Z,35.27
2023-05-15T19:42:41.118Z,35.10
2023-05-15T19:45:11.546Z,35.16
2023-05-15T19:47:39.470Z,35.43
2023-05-15T19:50:08.719Z,35.57
2023-05-15T19:52:36.599Z,35.45
2023-05-15T19:55:04.796Z,35.70
2023-05-15T19:57:32.720Z,35.60
2023-05-15T20:00:00.700Z,35.77
2023-05-15T20:02:30.058Z,35.76
2023-05-15T20:04:57.998Z,35.96
2023-05-15T20:07:25.836Z,36.33
2023-05-15T20:09:53.662Z,36.14
2023-05-15T20:12:22.522Z,36.23
2023-05-15T20:14:50.375Z,36.18
2023-05-15T20:17:18.437Z,36.20
2023-05-15T20:19:48.092Z,36.72
2023-05-15T20:22:15.965Z,36.37
2023-05-15T20:24:44.294Z,36.68
2023-05-15T20:27:12.406Z,36.58
2023-05-15T20:29:40.463Z,37.05
2023-05-15T20:32:08.572Z,36.79
2023-05-15T20:34:36.905Z,37.01
2023-05-15T20:37:06.384Z,37.25
2023-05-15T20:39:34.326Z,37.04
2023-05-15T20:42:02.266Z,37.07
2023-05-15T20:44:30.580Z,37.26
2023-05-15T20:46:58.462Z,37.41
2023-05-15T20:49:27.102Z,37.81
2023-05-15T20:51:55.050Z,37.93
2023-05-15T20:54:24.344Z,38.07
2023-05-15T20:56:52.314Z,38.14
2023-05-15T20:59:20.188Z,38.28
2023-05-15T21:01:48.112Z,38.17
2023-05-15T21:04:16.183Z,38.35
2023-05-15T21:06:44.086Z,38.73
2023-05-15T21:09:12.005Z,38.92
2023-05-15T21:11:41.232Z,39.03
2023-05-15T21:14:09.103Z,39.26
2023-05-15T21:16:37.076Z,39.35
2023-05-15T21:19:05.080Z,39.61
2023-05-15T21:21:33.025Z,39.51
2023-05-15T21:24:02.178Z,39.76
2023-05-15T21:26:30.121Z,40.09
2023-05-15T21:28:59.549Z,39.93
2023-05-15T21:31:27.671Z,40.31
2023-05-15T21:33:55.916Z,40.43
2023-05-15T21:36:23.944Z,40.70
2023-05-15T21:38:51.807Z,40.87
2023-05-15T21:41:19.650Z,40.96
2023-05-15T21:43:47.508Z,41.22
2023-05-15T21:46:16.790Z,41.13
2023-05-15T21:48:44.683Z,41.31
2023-05-15T21:51:12.576Z,41.71
2023-05-15T21:53:40.472Z,41.65
2023-05-15T21:56:08.973Z,41.68
2023-05-15T21:58:36.833Z,41.85
2023-05-15T22:01:04.686Z,41.96
2023-05-15T22:03:34.132Z,41.70
2023-05-15T22:06:02.151Z,41.98
2023-05-15T22:08:30.107Z,42.15
2023-05-15T22:10:58.653Z,41.98
2023-05-15T22:13:26.594Z,42.14
2023-05-15T22:15:54.558Z,42.38
2023-05-15T22:18:23.212Z,42.23
2023-05-15T22:20:52.447Z,42.22
2023-05-15T22:23:20.390Z,42.39
2023-05-15T22:25:49.077Z,42.63
2023-05-15T22:28:17.013Z,42.64
2023-05-15T22:30:44.885Z,42.92
2023-05-15T22:33:12.811Z,42.81
2023-05-15T22:35:41.148Z,42.77
2023-05-15T22:38:10.414Z,43.02
2023-05-15T22:40:38.301Z,42.97
2023-05-15T22:43:06.179Z,42.85
2023-05-15T22:45:34.122Z,42.92
2023-05-15T22:48:02.401Z,42.95
2023-05-15T22:50:30.443Z,43.10
2023-05-15T22:52:58.327Z,43.10
2023-05-15T22:55:27.670Z,43.22
2023-05-15T22:57:55.599Z,43.13
2023-05-15T23:00:23.526Z,43.23
2023-05-15T23:02:55.264Z,43.09
2023-05-15T23:05:24.869Z,43.31
2023-05-15T23:08:47.960Z,43.69
2023-05-15T23:11:17.265Z,43.80
2023-05-15T23:13:45.169Z,44.23
2023-05-15T23:16:13.124Z,44.09
2023-05-15T23:18:41.085Z,43.81
2023-05-15T23:21:09.005Z,44.00
2023-05-15T23:23:36.899Z,44.07
2023-05-15T23:26:04.823Z,44.02
2023-05-15T23:28:34.081Z,44.21
2023-05-15T23:31:01.981Z,43.96
2023-05-15T23:33:29.874Z,43.93
2023-05-15T23:35:57.717Z,44.05
2023-05-15T23:38:25.700Z,43.92
2023-05-15T23:40:53.658Z,44.11
2023-05-15T23:43:22.089Z,44.09
2023-05-15T23:45:51.310Z,44.08
2023-05-15T23:48:19.213Z,44.40
2023-05-15T23:50:47.091Z,44.28
2023-05-15T23:53:14.952Z,44.40
2023-05-15T23:55:42.854Z,44.41
2023-05-15T23:58:10.727Z,44.59
